Time;durP1;ratioP1;P1;durP2;ratioP2;P2;SDS_P1;SDS_P2;PMS_P1;PMS_P2;Temp;Humidity;BMP_temperature;BMP_pressure;BME280_temperature;BME280_humidity;BME280_pressure;Samples;Min_cycle;Max_cycle;Signal;HPM_P1;HPM_P2
2022/09/11 00:01:12;;;;;;;8.48;5.03;;;;;;;16.84;89.87;100648.34;5109958;28;20042;-83
2022/09/11 00:04:16;;;;;;;11.73;6.07;;;;;;;16.88;90.16;100655.06;5112787;28;20078;-81
2022/09/11 00:07:19;;;;;;;9.20;5.68;;;;;;;16.93;89.40;100656.38;5112661;28;20124;-81
2022/09/11 00:10:27;;;;;;;9.23;5.40;;;;;;;16.94;89.21;100642.25;5109699;28;20054;-81
2022/09/11 00:13:32;;;;;;;11.38;7.43;;;;;;;16.92;89.31;100654.72;5109800;28;20085;-81
2022/09/11 00:16:38;;;;;;;9.57;5.70;;;;;;;16.89;89.61;100654.13;5109370;28;20042;-81
2022/09/11 00:19:42;;;;;;;9.48;5.68;;;;;;;16.88;89.81;100663.84;5108946;28;20051;-82
2022/09/11 00:22:47;;;;;;;14.18;6.72;;;;;;;16.93;89.29;100661.66;5108915;28;20050;-85
2022/09/11 00:25:51;;;;;;;13.40;8.68;;;;;;;16.93;89.44;100661.66;5109294;28;20084;-85
2022/09/11 00:28:56;;;;;;;10.27;9.02;;;;;;;16.85;89.82;100664.06;5097024;28;20187;-85
2022/09/11 00:32:00;;;;;;;9.40;7.88;;;;;;;16.82;89.89;100680.16;5097253;28;20055;-85
2022/09/11 00:35:04;;;;;;;10.57;9.57;;;;;;;16.88;89.43;100684.97;5096256;28;20123;-85
2022/09/11 00:38:07;;;;;;;12.55;8.63;;;;;;;16.73;90.24;100675.53;5088294;28;20070;-82
2022/09/11 00:41:17;;;;;;;11.68;9.05;;;;;;;16.82;89.67;100677.50;5075425;28;20547;-83
2022/09/11 00:44:22;;;;;;;10.93;9.70;;;;;;;16.66;90.62;100679.59;5075774;28;20050;-83
2022/09/11 00:47:28;;;;;;;14.75;10.57;;;;;;;16.51;91.98;100682.41;5076152;28;20043;-82
2022/09/11 00:50:31;;;;;;;13.27;11.45;;;;;;;16.56;91.54;100675.94;5075443;28;20048;-82
2022/09/11 00:53:36;;;;;;;13.10;11.48;;;;;;;16.58;91.10;100676.69;5088691;28;20178;-82
2022/09/11 00:56:42;;;;;;;17.00;12.57;;;;;;;16.62;90.14;100683.41;5088978;28;20580;-82
2022/09/11 00:59:46;;;;;;;14.18;12.82;;;;;;;16.62;89.53;100678.13;5075905;28;20051;-82
2022/09/11 01:02:52;;;;;;;15.10;13.45;;;;;;;16.54;89.70;100672.59;5075639;28;20160;-82
2022/09/11 01:05:56;;;;;;;16.45;14.75;;;;;;;16.46;89.87;100666.09;5097856;28;20133;-84
2022/09/11 01:09:00;;;;;;;17.25;14.68;;;;;;;16.52;89.36;100667.41;5087820;28;20047;-83
2022/09/11 01:12:11;;;;;;;17.05;15.25;;;;;;;16.65;88.72;100667.34;5087995;28;20126;-82
2022/09/11 01:15:29;;;;;;;18.23;15.52;;;;;;;16.64;88.26;100666.50;5087851;28;20071;-82
2022/09/11 01:19:03;;;;;;;15.90;14.50;;;;;;;16.64;88.42;100665.66;5075188;28;20043;-83
2022/09/11 01:22:30;;;;;;;19.00;16.83;;;;;;;16.62;88.44;100672.84;5054673;28;20047;-83
2022/09/11 01:25:42;;;;;;;15.55;14.13;;;;;;;16.54;88.78;100676.06;5075654;28;20626;-82
2022/09/11 01:29:12;;;;;;;18.38;16.85;;;;;;;16.52;88.41;100675.34;5075203;28;20062;-82
2022/09/11 01:32:22;;;;;;;18.08;15.10;;;;;;;16.44;88.77;100685.63;5088361;28;20067;-82
2022/09/11 01:35:41;;;;;;;17.88;16.15;;;;;;;16.42;88.64;100691.00;5089703;28;20132;-84
2022/09/11 01:38:59;;;;;;;18.73;16.60;;;;;;;16.23;88.95;100694.16;5094928;28;20511;-84
2022/09/11 01:42:13;;;;;;;24.80;20.63;;;;;;;16.20;88.84;100693.56;5107765;28;20096;-84
2022/09/11 01:45:19;;;;;;;20.00;16.02;;;;;;;16.16;89.14;100697.38;5119130;27;20457;-82
2022/09/11 01:48:32;;;;;;;19.15;15.43;;;;;;;16.08;89.22;100699.72;5095150;28;20420;-82
2022/09/11 01:51:40;;;;;;;22.33;17.58;;;;;;;16.21;88.39;100696.09;5096086;28;20345;-84
2022/09/11 01:54:53;;;;;;;23.35;17.05;;;;;;;16.19;88.21;100697.16;5098002;28;20050;-84
2022/09/11 01:58:02;;;;;;;18.52;16.63;;;;;;;16.15;88.68;100701.81;5098175;28;20047;-83
2022/09/11 02:01:13;;;;;;;17.52;15.77;;;;;;;16.25;88.05;100704.63;5095981;28;20152;-82
2022/09/11 02:04:22;;;;;;;18.27;16.48;;;;;;;16.23;87.85;100698.59;5095441;28;20051;-83
2022/09/11 02:07:35;;;;;;;16.83;15.25;;;;;;;16.26;87.90;100706.28;5108227;28;20074;-83
2022/09/11 02:10:44;;;;;;;17.95;15.48;;;;;;;16.20;88.43;100710.22;5108564;28;20454;-82
2022/09/11 02:13:53;;;;;;;17.42;15.73;;;;;;;16.20;87.81;100709.38;5107582;28;20043;-82
2022/09/11 02:17:31;;;;;;;18.92;16.25;;;;;;;16.08;88.96;100710.25;5095797;28;20050;-82
2022/09/11 02:20:35;;;;;;;15.85;14.30;;;;;;;16.21;88.77;100719.00;5112386;28;20086;-83
2022/09/11 02:23:40;;;;;;;17.73;15.93;;;;;;;15.95;89.52;100716.44;5111241;28;20074;-81
2022/09/11 02:26:48;;;;;;;16.17;14.60;;;;;;;16.09;89.03;100717.25;5090795;28;20047;-82
2022/09/11 02:29:53;;;;;;;18.73;15.38;;;;;;;16.16;88.59;100726.41;5091030;28;20459;-82
2022/09/11 02:32:57;;;;;;;16.05;14.52;;;;;;;16.07;88.78;100727.91;5101741;28;20160;-83
2022/09/11 02:36:17;;;;;;;16.95;15.25;;;;;;;16.01;88.60;100734.44;5090472;28;20516;-84
2022/09/11 02:39:49;;;;;;;17.33;15.63;;;;;;;15.93;89.19;100742.06;5078696;28;20586;-83
2022/09/11 02:43:12;;;;;;;18.95;16.95;;;;;;;16.11;88.86;100742.53;5090478;28;20519;-82
2022/09/11 02:46:26;;;;;;;18.08;16.33;;;;;;;16.11;88.76;100741.69;5078497;28;20050;-82
2022/09/11 02:49:44;;;;;;;19.38;17.40;;;;;;;16.03;89.36;100748.38;5078514;28;20043;-82
2022/09/11 02:53:01;;;;;;;18.00;16.10;;;;;;;15.99;89.78;100748.72;5077869;28;20062;-83
2022/09/11 02:56:25;;;;;;;16.65;15.02;;;;;;;15.98;89.92;100753.13;5090607;28;20043;-84
2022/09/11 02:59:41;;;;;;;17.45;15.50;;;;;;;16.14;88.56;100752.03;5095549;28;20112;-84
2022/09/11 03:02:46;;;;;;;17.85;16.05;;;;;;;16.08;88.77;100752.47;5097632;28;20042;-83
2022/09/11 03:05:50;;;;;;;16.08;14.40;;;;;;;16.07;89.25;100756.06;5097701;28;20512;-82
2022/09/11 03:08:54;;;;;;;18.38;16.40;;;;;;;16.20;88.43;100762.97;5097988;28;20042;-82
2022/09/11 03:11:58;;;;;;;22.33;18.02;;;;;;;16.21;88.30;100758.56;5111298;28;20100;-82
2022/09/11 03:15:02;;;;;;;17.08;15.38;;;;;;;16.00;89.49;100767.06;5111527;28;20139;-80
2022/09/11 03:18:05;;;;;;;18.15;16.13;;;;;;;16.02;89.57;100764.31;5097693;28;20074;-81
2022/09/11 03:21:10;;;;;;;15.73;14.35;;;;;;;16.19;88.42;100761.31;5097639;28;20043;-81
2022/09/11 03:24:15;;;;;;;20.35;18.40;;;;;;;16.24;87.83;100758.31;5097725;28;20050;-84
2022/09/11 03:27:22;;;;;;;18.65;16.85;;;;;;;16.20;87.97;100757.72;5098085;28;20459;-84
2022/09/11 03:30:26;;;;;;;24.35;18.95;;;;;;;16.20;87.86;100768.25;5109562;28;20168;-83
2022/09/11 03:33:29;;;;;;;22.73;20.63;;;;;;;16.05;88.88;100769.38;5086860;28;20171;-84
2022/09/11 03:36:33;;;;;;;18.48;16.55;;;;;;;15.99;89.19;100769.81;5110758;28;20120;-84
2022/09/11 03:39:36;;;;;;;26.70;21.27;;;;;;;15.85;88.76;100776.03;5097797;28;20172;-84
2022/09/11 03:42:40;;;;;;;23.77;19.60;;;;;;;15.80;88.79;100784.28;5109697;28;20097;-84
2022/09/11 03:45:48;;;;;;;26.27;20.67;;;;;;;15.81;88.76;100787.75;5090034;28;20097;-84
2022/09/11 03:48:52;;;;;;;21.75;19.38;;;;;;;15.79;89.02;100784.38;5097269;28;20046;-82
2022/09/11 03:51:56;;;;;;;22.95;20.52;;;;;;;15.91;88.44;100783.53;5120806;27;20053;-82
2022/09/11 03:55:00;;;;;;;24.70;21.85;;;;;;;15.82;89.04;100784.16;5110289;28;20499;-82
2022/09/11 03:58:03;;;;;;;32.03;21.85;;;;;;;15.87;88.74;100787.34;5110666;28;20092;-81
2022/09/11 04:01:12;;;;;;;23.33;21.00;;;;;;;15.83;88.98;100785.03;5110558;28;20097;-82
2022/09/11 04:04:17;;;;;;;23.95;21.15;;;;;;;15.74;89.36;100770.69;5121245;27;20054;-81
2022/09/11 04:07:21;;;;;;;22.20;19.88;;;;;;;15.81;89.07;100782.50;5097650;28;20046;-81
2022/09/11 04:10:26;;;;;;;21.85;19.58;;;;;;;15.78;89.71;100782.72;5097108;28;20096;-81
2022/09/11 04:13:35;;;;;;;22.05;19.92;;;;;;;15.74;89.63;100775.97;5096709;28;20043;-81
2022/09/11 04:16:41;;;;;;;22.92;19.52;;;;;;;15.92;89.21;100785.22;5096352;28;20404;-82
2022/09/11 04:19:44;;;;;;;22.40;20.20;;;;;;;15.99;88.93;100783.00;5109371;28;20070;-82
2022/09/11 04:22:49;;;;;;;20.35;18.40;;;;;;;16.03;88.82;100787.94;5109339;28;20089;-82
2022/09/11 04:25:56;;;;;;;22.85;20.55;;;;;;;16.06;88.70;100786.03;5097082;28;20104;-83
2022/09/11 04:29:00;;;;;;;22.48;20.23;;;;;;;15.94;89.33;100783.31;5097203;28;20408;-82
2022/09/11 04:32:03;;;;;;;20.35;18.35;;;;;;;15.99;90.08;100791.75;5120661;27;20089;-82
2022/09/11 04:35:10;;;;;;;22.88;20.52;;;;;;;16.12;89.22;100786.44;5120721;27;20424;-82
2022/09/11 04:38:22;;;;;;;27.52;22.13;;;;;;;16.07;88.96;100793.00;5097383;28;20484;-83
2022/09/11 04:41:27;;;;;;;22.45;19.90;;;;;;;16.02;89.23;100791.53;5096513;28;20520;-83
2022/09/11 04:44:31;;;;;;;20.38;18.27;;;;;;;16.13;88.86;100792.56;5096126;28;20042;-82
2022/09/11 04:47:35;;;;;;;23.33;20.90;;;;;;;16.19;88.49;100797.41;5095980;28;20089;-83
2022/09/11 04:50:40;;;;;;;26.75;22.77;;;;;;;16.13;88.55;100803.13;5119807;27;20134;-83
2022/09/11 04:53:56;;;;;;;21.63;18.90;;;;;;;16.14;88.88;100797.72;5119765;27;20042;-82
2022/09/11 04:57:03;;;;;;;23.45;21.08;;;;;;;16.10;88.71;100804.16;5095993;28;20313;-82
2022/09/11 05:00:07;;;;;;;26.98;21.80;;;;;;;16.01;89.65;100810.09;5108526;28;20050;-84
2022/09/11 05:03:12;;;;;;;24.38;20.98;;;;;;;16.08;89.31;100815.78;5096263;28;20042;-84
2022/09/11 05:06:15;;;;;;;27.63;20.30;;;;;;;16.10;89.32;100808.59;5091052;28;20127;-82
2022/09/11 05:09:20;;;;;;;25.02;22.38;;;;;;;16.00;89.39;100811.88;5075723;28;20082;-81
2022/09/11 05:12:24;;;;;;;24.50;21.73;;;;;;;15.91;89.98;100811.69;5076256;28;20115;-82
2022/09/11 05:15:30;;;;;;;23.60;21.08;;;;;;;15.95;90.02;100816.66;5075400;28;20035;-83
2022/09/11 05:19:25;;;;;;;26.75;23.35;;;;;;;16.01;89.23;100824.13;5089861;28;20060;-89
2022/09/11 05:37:09;;;;;;;28.48;24.02;;;;;;;15.90;89.72;100828.47;5050144;22;20054;-75
2022/09/11 05:40:48;;;;;;;33.95;23.83;;;;;;;15.91;90.09;100836.28;5028916;28;20036;-76
2022/09/11 05:43:52;;;;;;;33.03;23.83;;;;;;;16.04;89.43;100850.28;5015947;28;20128;-76
2022/09/11 05:46:56;;;;;;;28.17;23.05;;;;;;;16.18;89.11;100851.13;5027553;28;20053;-76
2022/09/11 05:50:00;;;;;;;24.17;21.58;;;;;;;16.26;88.91;100852.25;5026666;28;20210;-76
2022/09/11 05:53:04;;;;;;;25.90;23.08;;;;;;;16.26;88.86;100856.69;5014592;28;20080;-76
2022/09/11 05:56:13;;;;;;;24.38;21.65;;;;;;;16.26;88.92;100867.25;5037622;28;20399;-76
2022/09/11 05:59:17;;;;;;;25.65;22.95;;;;;;;16.11;90.16;100861.25;5037433;28;20044;-76
2022/09/11 06:02:23;;;;;;;27.38;23.33;;;;;;;16.07;90.52;100864.22;5038375;28;20044;-75
2022/09/11 06:05:30;;;;;;;29.00;24.60;;;;;;;16.02;90.42;100870.66;5038186;28;20178;-76
2022/09/11 06:08:36;;;;;;;27.15;22.02;;;;;;;15.98;91.26;100874.44;5006973;28;20182;-76
2022/09/11 06:11:40;;;;;;;27.92;24.88;;;;;;;15.88;92.04;100878.66;5004936;28;20048;-75
2022/09/11 06:14:44;;;;;;;34.10;26.00;;;;;;;15.94;91.88;100883.53;4995436;28;20268;-78
2022/09/11 06:17:50;;;;;;;27.05;23.70;;;;;;;15.88;92.22;100888.38;5006814;28;20045;-78
2022/09/11 06:21:00;;;;;;;38.78;26.92;;;;;;;16.15;90.56;100893.56;5007563;28;20100;-78
2022/09/11 06:24:06;;;;;;;29.85;26.73;;;;;;;16.22;90.67;100893.00;5016705;28;20040;-79
2022/09/11 06:27:11;;;;;;;32.78;27.92;;;;;;;15.89;92.58;100900.59;4983214;28;20141;-78
2022/09/11 06:30:19;;;;;;;29.17;25.98;;;;;;;16.07;92.01;100891.44;5021944;28;20100;-78
2022/09/11 06:33:23;;;;;;;32.72;27.05;;;;;;;15.93;92.61;100884.50;4993600;28;20045;-78
2022/09/11 06:36:28;;;;;;;32.78;27.23;;;;;;;16.01;92.47;100892.69;4986612;28;20165;-78
2022/09/11 06:39:35;;;;;;;34.10;25.95;;;;;;;16.06;92.42;100886.28;5009813;28;20656;-78
2022/09/11 06:42:40;;;;;;;30.17;25.35;;;;;;;16.14;92.72;100891.84;4991526;28;20396;-78
2022/09/11 06:45:43;;;;;;;30.50;26.63;;;;;;;16.23;91.86;100885.94;4976795;28;20258;-78
2022/09/11 06:48:49;;;;;;;29.35;22.98;;;;;;;16.20;92.80;100891.41;4982907;28;20040;-78
2022/09/11 06:52:00;;;;;;;26.98;24.08;;;;;;;16.45;91.86;100893.19;5006256;28;20176;-78
2022/09/11 06:55:12;;;;;;;35.30;23.08;;;;;;;16.45;91.87;100903.75;4995329;28;20035;-78
2022/09/11 06:58:17;;;;;;;27.02;23.70;;;;;;;16.59;91.65;100897.47;4992200;28;20417;-78
2022/09/11 07:01:21;;;;;;;25.88;23.27;;;;;;;16.70;91.35;100898.38;5013745;28;20084;-78
2022/09/11 07:04:31;;;;;;;26.90;24.08;;;;;;;16.76;91.00;100899.78;4991687;28;20401;-78
2022/09/11 07:07:38;;;;;;;25.92;23.35;;;;;;;16.74;93.11;100905.13;4998927;28;20092;-78
2022/09/11 07:10:45;;;;;;;29.60;23.95;;;;;;;16.84;92.64;100905.34;4993415;28;20397;-78
2022/09/11 07:13:50;;;;;;;27.98;25.08;;;;;;;16.89;92.99;100907.66;5001946;28;20285;-78
2022/09/11 07:16:55;;;;;;;28.08;23.67;;;;;;;16.92;92.29;100903.00;5000233;28;20054;-78
2022/09/11 07:19:59;;;;;;;25.73;23.13;;;;;;;17.01;92.08;100896.22;4995019;28;20049;-78
2022/09/11 07:23:23;;;;;;;25.60;22.85;;;;;;;17.20;91.41;100890.41;5003823;28;20112;-77
2022/09/11 07:26:53;;;;;;;25.33;22.42;;;;;;;17.27;89.00;100890.78;4997031;28;20072;-78
2022/09/11 07:30:05;;;;;;;22.30;20.05;;;;;;;17.16;87.88;100895.06;5004120;28;20045;-79
2022/09/11 07:33:14;;;;;;;22.60;20.20;;;;;;;17.14;85.77;100896.16;5005344;28;20072;-78
2022/09/11 07:36:21;;;;;;;21.63;19.30;;;;;;;17.28;86.34;100898.59;5008892;28;20528;-79
2022/09/11 07:39:28;;;;;;;24.35;20.35;;;;;;;17.04;87.63;100900.41;4995393;28;20427;-79
2022/09/11 07:43:03;;;;;;;21.98;19.20;;;;;;;16.92;86.84;100897.72;5002197;28;20040;-79
2022/09/11 07:46:10;;;;;;;22.67;20.10;;;;;;;17.05;86.70;100896.81;4998607;28;20049;-78
2022/09/11 07:50:10;;;;;;;24.15;20.13;;;;;;;17.11;87.18;100894.56;5001590;28;20113;-79
2022/09/11 07:53:17;;;;;;;21.08;17.80;;;;;;;17.09;85.80;100903.56;4974760;28;20129;-79
2022/09/11 07:56:26;;;;;;;20.88;18.42;;;;;;;17.20;87.00;100900.97;4992606;28;20056;-79
2022/09/11 07:59:32;;;;;;;23.02;19.88;;;;;;;17.05;85.32;100900.31;5021618;28;20543;-78
2022/09/11 08:02:36;;;;;;;23.15;20.17;;;;;;;17.02;84.81;100904.97;4991125;28;20548;-79
2022/09/11 08:05:41;;;;;;;20.95;18.63;;;;;;;17.02;84.88;100913.72;5014684;28;20037;-79
2022/09/11 08:08:57;;;;;;;21.77;18.45;;;;;;;16.91;84.61;100911.03;5013668;28;20121;-79
2022/09/11 08:12:02;;;;;;;22.95;20.58;;;;;;;17.06;84.49;100912.53;5004189;28;20040;-79
2022/09/11 08:15:08;;;;;;;20.58;18.25;;;;;;;16.94;84.25;100916.94;4999540;28;20382;-78
2022/09/11 08:18:12;;;;;;;24.10;19.23;;;;;;;16.98;84.46;100914.09;4993083;28;20095;-79
2022/09/11 08:21:18;;;;;;;20.13;17.85;;;;;;;16.99;83.92;100913.13;4989031;28;20165;-79
2022/09/11 08:24:23;;;;;;;21.65;19.33;;;;;;;17.01;84.21;100921.78;4983097;28;20044;-79
2022/09/11 08:27:32;;;;;;;19.83;17.73;;;;;;;17.12;83.94;100924.47;4992546;28;20503;-79
2022/09/11 08:30:37;;;;;;;23.10;18.85;;;;;;;17.16;83.78;100925.91;5005396;28;20048;-79
2022/09/11 08:33:41;;;;;;;20.73;18.63;;;;;;;17.27;84.06;100933.91;4994002;28;20133;-79
2022/09/11 08:36:49;;;;;;;22.10;18.42;;;;;;;17.43;83.25;100938.91;4987843;28;20116;-79
2022/09/11 08:39:53;;;;;;;19.52;16.98;;;;;;;17.57;82.52;100941.34;4998741;28;20077;-79
2022/09/11 08:43:02;;;;;;;20.02;17.88;;;;;;;17.63;82.35;100940.06;5004875;28;20046;-79
2022/09/11 08:46:08;;;;;;;17.88;15.98;;;;;;;17.69;83.15;100942.25;4984134;28;20396;-79
2022/09/11 08:49:35;;;;;;;16.52;14.73;;;;;;;17.82;82.58;100945.66;5006680;28;20084;-79
2022/09/11 08:52:41;;;;;;;19.10;16.98;;;;;;;18.05;82.07;100940.41;5005555;28;20068;-79
2022/09/11 08:56:11;;;;;;;21.08;18.17;;;;;;;18.17;80.50;100944.78;4992763;28;20547;-79
2022/09/11 08:59:35;;;;;;;21.95;16.13;;;;;;;18.10;78.60;100948.84;5003300;28;20103;-79
2022/09/11 09:03:20;;;;;;;24.17;17.52;;;;;;;18.01;79.17;100949.56;5002046;28;20040;-79
2022/09/11 09:06:39;;;;;;;22.10;17.33;;;;;;;17.78;79.63;100956.63;5006683;28;20045;-79
2022/09/11 09:10:17;;;;;;;19.23;17.23;;;;;;;17.98;80.03;100960.38;5006688;28;20048;-78
2022/09/11 09:13:30;;;;;;;19.65;17.20;;;;;;;18.01;79.64;100949.56;5009504;28;20045;-79
2022/09/11 09:16:45;;;;;;;18.77;16.23;;;;;;;18.06;79.96;100947.38;5020074;28;20555;-79
2022/09/11 09:19:54;;;;;;;18.98;16.60;;;;;;;18.31;78.42;100952.50;5003365;28;20084;-77
2022/09/11 09:23:01;;;;;;;21.80;16.73;;;;;;;18.52;77.07;100959.72;5004506;28;20049;-77
2022/09/11 09:26:17;;;;;;;21.10;15.98;;;;;;;18.44;76.92;100962.09;4980215;28;20520;-77
2022/09/11 09:29:31;;;;;;;19.35;16.42;;;;;;;18.28;77.35;100963.31;4993618;28;20096;-77
2022/09/11 09:32:47;;;;;;;19.85;17.77;;;;;;;18.13;78.43;100961.84;4989701;28;20040;-77
2022/09/11 09:35:53;;;;;;;17.90;15.85;;;;;;;18.10;79.14;100970.03;5004171;28;20048;-77
2022/09/11 09:39:01;;;;;;;16.75;14.98;;;;;;;18.15;79.71;100973.16;5015959;28;20057;-77
2022/09/11 09:42:27;;;;;;;19.83;15.50;;;;;;;18.18;79.94;100978.22;4989675;28;20519;-79
2022/09/11 09:45:41;;;;;;;18.08;15.07;;;;;;;18.15;78.77;100977.59;4990744;28;20109;-79
2022/09/11 09:48:45;;;;;;;17.33;14.27;;;;;;;18.25;76.98;100978.56;5007879;28;20048;-77
2022/09/11 09:51:53;;;;;;;17.45;14.82;;;;;;;18.36;75.70;100968.84;5005529;28;20182;-77
2022/09/11 09:55:03;;;;;;;17.48;15.68;;;;;;;18.49;75.58;100971.38;5006917;28;20579;-79
2022/09/11 09:58:09;;;;;;;17.88;15.27;;;;;;;18.72;74.76;100969.59;5005746;28;20060;-79
2022/09/11 10:01:50;;;;;;;18.00;14.95;;;;;;;18.85;72.90;100971.25;5004811;28;20524;-79
2022/09/11 10:05:07;;;;;;;19.10;15.18;;;;;;;18.76;73.30;100963.09;5005045;28;20160;-79
2022/09/11 10:26:49;;;;;;;16.85;15.18;;;;;;;19.01;72.85;100961.09;6323087;22;1503835;-78
2022/09/11 10:29:57;;;;;;;16.40;14.73;;;;;;;19.01;73.31;100955.81;6402102;22;20075;-79
2022/09/11 10:33:27;;;;;;;15.90;13.52;;;;;;;19.05;70.99;100958.09;6401370;22;20471;-79
2022/09/11 10:36:34;;;;;;;15.63;13.48;;;;;;;18.96;69.78;100963.31;6402806;22;20089;-79
2022/09/11 10:39:42;;;;;;;13.50;11.70;;;;;;;18.83;71.27;100957.31;6383439;22;20062;-79
2022/09/11 10:42:49;;;;;;;15.90;12.50;;;;;;;18.86;70.74;100957.03;6384180;22;20024;-79
2022/09/11 10:46:23;;;;;;;14.68;12.15;;;;;;;18.76;70.34;100960.44;6403622;22;20078;-79
2022/09/11 10:49:28;;;;;;;13.10;11.70;;;;;;;18.89;67.41;100951.50;6402968;22;20225;-79
2022/09/11 10:52:31;;;;;;;13.55;12.00;;;;;;;19.23;66.63;100955.75;6383905;22;20024;-79
2022/09/11 10:55:43;;;;;;;13.48;12.07;;;;;;;19.49;66.87;100952.75;6403300;22;20530;-80
2022/09/11 10:58:52;;;;;;;13.68;11.98;;;;;;;19.63;66.86;100947.16;6403200;22;20056;-79
2022/09/11 11:01:57;;;;;;;13.27;10.63;;;;;;;19.39;66.87;100943.88;6403032;22;20028;-79
2022/09/11 11:05:20;;;;;;;14.80;10.75;;;;;;;19.33;67.48;100939.09;6404291;22;20024;-79
2022/09/11 11:08:50;;;;;;;10.57;9.48;;;;;;;19.19;64.67;100940.22;6404608;22;20142;-79
2022/09/11 11:12:09;;;;;;;12.18;9.27;;;;;;;19.26;64.38;100938.75;6403256;22;20509;-79
2022/09/11 11:15:27;;;;;;;13.43;11.05;;;;;;;19.34;64.80;100930.19;6403267;22;20414;-79
2022/09/11 11:18:49;;;;;;;13.93;12.52;;;;;;;19.29;66.39;100934.03;6403101;22;20082;-79
2022/09/11 11:22:16;;;;;;;17.73;15.65;;;;;;;19.46;65.76;100942.41;6401898;22;20471;-79
2022/09/11 11:25:26;;;;;;;15.65;12.55;;;;;;;19.79;65.00;100932.66;6401133;22;20061;-79
2022/09/11 11:28:54;;;;;;;15.05;9.68;;;;;;;19.65;62.68;100926.66;6395099;22;20337;-79
2022/09/11 11:32:07;;;;;;;12.10;10.18;;;;;;;19.60;64.64;100930.66;6395319;22;20071;-79
2022/09/11 11:35:22;;;;;;;13.40;9.43;;;;;;;19.41;63.97;100926.03;6396987;22;20086;-79
2022/09/11 11:38:47;;;;;;;11.05;8.52;;;;;;;19.41;62.60;100934.00;6398587;22;20066;-79
2022/09/11 11:42:25;;;;;;;11.73;10.27;;;;;;;19.79;64.27;100932.66;6396443;22;20025;-79
2022/09/11 11:45:51;;;;;;;13.30;11.50;;;;;;;20.02;66.23;100928.84;6396326;22;20460;-79
2022/09/11 11:49:04;;;;;;;8.57;7.47;;;;;;;20.02;64.95;100926.19;6397252;22;20021;-79
2022/09/11 11:52:39;;;;;;;8.43;6.20;;;;;;;19.90;63.86;100928.09;6377800;22;20021;-79
2022/09/11 11:55:47;;;;;;;13.93;12.40;;;;;;;20.03;62.64;100933.19;6397084;22;20021;-79
2022/09/11 11:59:18;;;;;;;16.17;11.02;;;;;;;20.07;61.25;100918.69;6377544;22;20517;-79
2022/09/11 12:02:29;;;;;;;11.15;8.73;;;;;;;20.14;61.02;100919.84;6394795;22;20020;-79
2022/09/11 12:05:33;;;;;;;15.18;12.30;;;;;;;20.40;61.29;100925.53;6395590;22;20028;-79
2022/09/11 12:08:44;;;;;;;11.82;8.73;;;;;;;20.42;62.34;100928.91;6396320;22;20044;-79
2022/09/11 12:11:51;;;;;;;12.43;9.13;;;;;;;20.26;62.31;100927.69;6396727;22;20028;-79
2022/09/11 12:15:03;;;;;;;17.25;15.07;;;;;;;19.97;62.64;100931.06;6395737;22;20070;-79
2022/09/11 12:18:10;;;;;;;12.73;11.38;;;;;;;20.01;62.42;100936.97;6394802;22;20066;-79
2022/09/11 12:21:23;;;;;;;13.00;11.20;;;;;;;19.98;64.08;100935.41;6395491;22;20025;-78
2022/09/11 12:24:51;;;;;;;15.75;11.07;;;;;;;19.97;64.28;100928.41;6395444;22;20153;-78
2022/09/11 12:28:09;;;;;;;14.77;10.43;;;;;;;19.97;64.10;100934.56;6375412;22;20352;-78
2022/09/11 12:31:16;;;;;;;12.73;10.10;;;;;;;19.67;67.33;100931.84;6395359;22;20021;-78
2022/09/11 12:34:46;;;;;;;11.52;9.70;;;;;;;19.64;67.62;100932.94;6394945;22;20074;-78
2022/09/11 12:37:59;;;;;;;12.00;10.27;;;;;;;19.88;66.29;100924.75;6374390;22;20028;-78
2022/09/11 12:41:14;;;;;;;11.85;10.23;;;;;;;19.86;67.15;100925.84;6394510;22;20025;-78
2022/09/11 12:44:50;;;;;;;10.77;9.60;;;;;;;20.30;65.37;100919.34;6395725;22;20020;-78
2022/09/11 12:47:54;;;;;;;14.48;10.30;;;;;;;20.63;66.23;100910.25;6357974;22;20251;-78
2022/09/11 12:50:59;;;;;;;11.73;10.30;;;;;;;22.48;59.74;100904.78;6395584;22;20347;-78
2022/09/11 12:54:23;;;;;;;15.43;9.82;;;;;;;25.64;49.45;100899.75;6395990;22;20068;-78
2022/09/11 12:57:34;;;;;;;11.85;9.35;;;;;;;27.80;42.28;100887.56;6396041;22;20024;-78
2022/09/11 13:00:40;;;;;;;10.63;8.65;;;;;;;28.92;40.51;100888.16;6396366;22;20352;-79
2022/09/11 13:04:06;;;;;;;9.07;8.02;;;;;;;29.78;37.20;100882.72;6397679;22;20021;-79
2022/09/11 13:07:28;;;;;;;11.73;9.00;;;;;;;24.89;46.70;100885.66;6394772;22;20024;-79
2022/09/11 13:10:38;;;;;;;10.13;8.13;;;;;;;22.93;51.79;100894.13;6397484;22;20044;-79
2022/09/11 13:13:51;;;;;;;12.90;8.65;;;;;;;22.98;53.36;100891.88;6377191;22;20074;-79
2022/09/11 13:16:57;;;;;;;13.18;9.30;;;;;;;21.53;56.32;100898.59;6396410;22;20418;-79
2022/09/11 13:20:03;;;;;;;9.50;8.23;;;;;;;20.86;58.58;100892.25;6395887;22;20044;-78
2022/09/11 13:23:19;;;;;;;8.98;8.00;;;;;;;20.81;58.04;100888.34;6394690;22;20107;-79
2022/09/11 13:26:23;;;;;;;9.35;7.55;;;;;;;20.60;57.94;100891.94;6396157;22;20052;-79
2022/09/11 13:29:30;;;;;;;9.20;7.97;;;;;;;20.90;57.99;100880.41;6395453;22;20360;-79
2022/09/11 13:32:34;;;;;;;9.30;7.40;;;;;;;21.70;60.08;100877.59;6395487;22;20348;-78
2022/09/11 13:35:44;;;;;;;8.45;6.43;;;;;;;23.17;54.63;100874.03;6394963;22;20040;-78
2022/09/11 13:38:53;;;;;;;7.13;5.57;;;;;;;24.33;48.25;100866.59;6395006;22;20024;-79
2022/09/11 13:42:04;;;;;;;6.88;5.68;;;;;;;25.48;47.01;100857.78;6388436;22;20063;-78
2022/09/11 13:45:16;;;;;;;10.68;5.80;;;;;;;23.80;50.43;100857.84;6387927;22;20028;-78
2022/09/11 13:48:22;;;;;;;5.75;5.15;;;;;;;23.78;48.70;100867.00;6395461;22;20164;-79
2022/09/11 13:51:29;;;;;;;8.00;6.18;;;;;;;22.99;50.11;100868.69;6392979;22;20024;-79
2022/09/11 13:54:55;;;;;;;7.85;6.32;;;;;;;22.87;50.44;100862.72;6395029;22;20025;-78
2022/09/11 13:58:02;;;;;;;8.35;6.03;;;;;;;21.97;53.79;100863.47;6395250;22;20393;-79
2022/09/11 14:01:10;;;;;;;6.97;6.28;;;;;;;26.08;43.78;100859.16;6396227;22;20380;-79
2022/09/11 14:04:15;;;;;;;8.43;6.22;;;;;;;29.94;37.67;100843.81;6396084;22;20070;-79
2022/09/11 14:07:25;;;;;;;7.57;5.25;;;;;;;33.11;31.34;100835.59;6375604;22;20085;-79
2022/09/11 14:10:41;;;;;;;6.80;5.05;;;;;;;33.27;29.07;100833.38;6394743;22;20024;-79
2022/09/11 14:13:51;;;;;;;6.80;4.72;;;;;;;32.42;31.19;100826.44;6394390;22;20096;-79
2022/09/11 14:16:59;;;;;;;6.45;5.53;;;;;;;34.67;26.13;100829.88;6394893;22;20501;-79
2022/09/11 14:20:21;;;;;;;8.77;5.80;;;;;;;28.30;36.03;100834.88;6395178;22;20036;-79
2022/09/11 14:23:28;;;;;;;9.07;6.80;;;;;;;26.63;41.44;100833.28;6394481;22;20043;-79
2022/09/11 14:26:35;;;;;;;7.90;6.40;;;;;;;25.81;43.67;100830.13;6394333;22;20025;-79
2022/09/11 14:29:52;;;;;;;7.85;7.00;;;;;;;24.92;44.24;100829.16;6375819;22;20356;-79
2022/09/11 14:33:21;;;;;;;7.68;6.60;;;;;;;23.97;46.69;100829.38;6395737;22;20029;-78
2022/09/11 14:36:26;;;;;;;11.95;7.78;;;;;;;23.26;50.99;100838.44;6394056;22;20020;-79
2022/09/11 14:39:46;;;;;;;8.75;7.40;;;;;;;22.93;51.36;100835.47;6393540;22;20070;-79
2022/09/11 14:42:50;;;;;;;9.13;8.23;;;;;;;22.57;52.23;100823.09;6394786;22;20110;-79
2022/09/11 14:45:57;;;;;;;9.27;8.35;;;;;;;22.17;51.47;100826.97;6394975;22;20020;-79
2022/09/11 14:49:14;;;;;;;10.07;8.45;;;;;;;22.41;51.73;100829.94;6360414;22;20028;-78
2022/09/11 14:52:24;;;;;;;9.25;7.78;;;;;;;22.54;52.23;100823.41;6394686;22;20024;-79
2022/09/11 14:55:29;;;;;;;9.27;8.30;;;;;;;22.14;55.76;100821.91;6375582;22;20025;-79
2022/09/11 14:58:34;;;;;;;10.15;7.65;;;;;;;21.80;55.80;100825.16;6394681;22;20129;-79
2022/09/11 15:01:42;;;;;;;10.32;8.40;;;;;;;23.20;54.92;100821.22;6394540;22;20020;-79
2022/09/11 15:04:47;;;;;;;9.75;8.32;;;;;;;22.21;57.82;100831.03;6396227;22;20017;-79